createdAt,value
2018-08-25T00:01:58.932Z,15.30
2018-08-25T00:04:27.569Z,15.30
2018-08-25T00:06:56.334Z,15.20
2018-08-25T00:09:24.970Z,15.20
2018-08-25T00:11:53.606Z,15.20
2018-08-25T00:14:22.386Z,15.20
2018-08-25T00:16:51.047Z,15.20
2018-08-25T00:19:19.695Z,15.20
2018-08-25T00:21:48.593Z,15.20
2018-08-25T00:24:17.281Z,15.10
2018-08-25T00:26:45.909Z,15.10
2018-08-25T00:29:14.751Z,15.10
2018-08-25T00:31:43.504Z,15.10
2018-08-25T00:34:12.218Z,15.00
2018-08-25T00:36:41.018Z,14.90
2018-08-25T00:39:09.814Z,14.90
2018-08-25T00:41:38.555Z,14.90
2018-08-25T00:44:07.406Z,14.80
2018-08-25T00:46:36.072Z,14.80
2018-08-25T00:49:04.740Z,14.70
2018-08-25T00:51:33.657Z,14.60
2018-08-25T00:54:02.329Z,14.60
2018-08-25T00:56:31.012Z,14.60
2018-08-25T00:58:59.727Z,14.50
2018-08-25T01:01:28.436Z,14.50
2018-08-25T01:03:57.345Z,14.40
2018-08-25T01:06:26.102Z,14.40
2018-08-25T01:08:54.773Z,14.40
2018-08-25T01:11:23.528Z,14.30
2018-08-25T01:13:52.201Z,14.30
2018-08-25T01:16:21.003Z,14.30
2018-08-25T01:18:52.646Z,14.20
2018-08-25T01:21:21.430Z,14.10
2018-08-25T01:23:50.100Z,14.10
2018-08-25T01:26:18.745Z,14.00
2018-08-25T01:28:47.439Z,13.90
2018-08-25T01:31:16.110Z,13.80
2018-08-25T01:33:44.820Z,13.80
2018-08-25T01:36:13.482Z,13.70
2018-08-25T01:38:42.113Z,13.70
2018-08-25T01:41:10.937Z,13.60
2018-08-25T01:43:39.576Z,13.60
2018-08-25T01:46:08.210Z,13.50
2018-08-25T01:48:37.022Z,13.50
2018-08-25T01:51:05.673Z,13.50
2018-08-25T01:53:34.381Z,13.50
2018-08-25T01:56:03.237Z,13.50
2018-08-25T01:58:31.882Z,13.50
2018-08-25T02:01:00.531Z,13.60
2018-08-25T02:03:29.226Z,13.60
2018-08-25T02:05:57.901Z,13.60
2018-08-25T02:08:26.545Z,13.60
2018-08-25T02:10:55.242Z,13.60
2018-08-25T02:13:23.913Z,13.50
2018-08-25T02:15:52.740Z,13.60
2018-08-25T02:18:21.360Z,13.60
2018-08-25T02:20:49.993Z,13.60
2018-08-25T02:23:18.626Z,13.60
2018-08-25T02:25:47.237Z,13.60
2018-08-25T02:28:15.887Z,13.50
2018-08-25T02:30:44.543Z,13.50
2018-08-25T02:33:13.166Z,13.50
2018-08-25T02:35:41.813Z,13.50
2018-08-25T02:38:10.469Z,13.40
2018-08-25T02:40:39.135Z,13.40
2018-08-25T02:43:07.797Z,13.40
2018-08-25T02:45:36.453Z,13.30
2018-08-25T02:48:05.141Z,13.30
2018-08-25T02:50:33.873Z,13.30
2018-08-25T02:53:02.542Z,13.20
2018-08-25T02:55:31.181Z,13.20
2018-08-25T02:57:59.851Z,13.20
2018-08-25T03:00:28.465Z,13.20
2018-08-25T03:02:57.082Z,13.10
2018-08-25T03:05:25.833Z,13.10
2018-08-25T03:07:54.454Z,13.20
2018-08-25T03:10:23.060Z,13.10
2018-08-25T03:12:51.737Z,13.10
2018-08-25T03:15:20.428Z,13.00
2018-08-25T03:17:49.058Z,13.00
2018-08-25T03:20:17.700Z,12.90
2018-08-25T03:22:46.322Z,12.90
2018-08-25T03:25:14.942Z,12.90
2018-08-25T03:27:43.807Z,12.80
2018-08-25T03:30:12.454Z,12.80
2018-08-25T03:32:41.073Z,12.70
2018-08-25T03:35:09.976Z,12.70
2018-08-25T03:37:38.596Z,12.70
2018-08-25T03:40:07.373Z,12.70
2018-08-25T03:42:36.031Z,12.70
2018-08-25T03:45:04.698Z,12.70
2018-08-25T03:47:33.342Z,12.70
2018-08-25T03:50:01.986Z,12.80
2018-08-25T03:52:30.678Z,12.80
2018-08-25T03:54:59.266Z,12.80
2018-08-25T03:57:28.143Z,12.80
2018-08-25T03:59:56.777Z,12.80
2018-08-25T04:02:25.412Z,12.80
2018-08-25T04:04:54.068Z,12.80
2018-08-25T04:07:22.726Z,12.90
2018-08-25T04:09:58.385Z,12.90
2018-08-25T04:12:27.109Z,12.80
2018-08-25T04:14:55.814Z,12.80
2018-08-25T04:17:24.439Z,12.90
2018-08-25T04:19:53.037Z,12.90
2018-08-25T04:22:21.778Z,12.90
2018-08-25T04:24:50.360Z,12.80
2018-08-25T04:27:18.988Z,12.90
2018-08-25T04:29:47.692Z,12.90
2018-08-25T04:32:16.362Z,12.90
2018-08-25T04:34:45.020Z,12.90
2018-08-25T04:37:13.681Z,12.90
2018-08-25T04:39:42.320Z,12.90
2018-08-25T04:42:10.961Z,12.80
2018-08-25T04:44:39.660Z,12.90
2018-08-25T04:47:08.375Z,12.90
2018-08-25T04:49:37.017Z,12.80
2018-08-25T04:52:05.974Z,12.80
2018-08-25T04:54:34.582Z,12.90
2018-08-25T04:57:03.290Z,12.90
2018-08-25T04:59:31.909Z,12.90
2018-08-25T05:02:00.626Z,12.90
2018-08-25T05:04:29.202Z,12.90
2018-08-25T05:06:57.830Z,12.90
2018-08-25T05:09:26.472Z,12.90
2018-08-25T05:11:55.104Z,12.90
2018-08-25T05:14:24.081Z,12.90
2018-08-25T05:16:52.722Z,12.90
2018-08-25T05:19:21.335Z,12.90
2018-08-25T05:21:50.039Z,12.90
2018-08-25T05:24:18.683Z,12.90
2018-08-25T05:26:47.335Z,12.90
2018-08-25T05:29:15.969Z,12.90
2018-08-25T05:31:44.812Z,13.00
2018-08-25T05:34:13.434Z,13.00
2018-08-25T05:36:42.087Z,13.00
2018-08-25T05:39:11.345Z,13.00
2018-08-25T05:41:40.285Z,13.10
2018-08-25T05:44:08.991Z,13.20
2018-08-25T05:46:37.595Z,13.20
2018-08-25T05:49:06.397Z,13.20
2018-08-25T05:51:35.062Z,13.30
2018-08-25T05:54:03.765Z,13.30
2018-08-25T05:56:32.409Z,13.30
2018-08-25T05:59:01.871Z,13.30
2018-08-25T06:01:30.483Z,13.40
2018-08-25T06:03:59.130Z,13.40
2018-08-25T06:06:27.776Z,13.50
2018-08-25T06:08:56.470Z,13.50
2018-08-25T06:11:25.083Z,13.60
2018-08-25T06:13:53.759Z,13.70
2018-08-25T06:16:22.390Z,13.70
2018-08-25T06:18:51.027Z,13.80
2018-08-25T06:21:19.658Z,13.90
2018-08-25T06:23:48.314Z,13.90
2018-08-25T06:26:16.981Z,13.90
2018-08-25T06:28:45.632Z,14.00
2018-08-25T06:31:14.257Z,14.00
2018-08-25T06:33:43.034Z,14.10
2018-08-25T06:36:11.673Z,14.10
2018-08-25T06:38:40.282Z,14.20
2018-08-25T06:41:08.964Z,14.30
2018-08-25T06:43:37.643Z,14.40
2018-08-25T06:46:07.179Z,14.50
2018-08-25T06:48:37.058Z,14.60
2018-08-25T06:51:05.829Z,14.70
2018-08-25T06:53:34.716Z,14.80
2018-08-25T06:56:03.474Z,14.90
2018-08-25T06:58:32.129Z,14.90
2018-08-25T07:01:01.493Z,15.00
2018-08-25T07:03:30.153Z,15.00
2018-08-25T07:05:58.793Z,15.00
2018-08-25T07:08:27.481Z,15.10
2018-08-25T07:10:56.129Z,15.20
2018-08-25T07:13:24.723Z,15.30
2018-08-25T07:15:53.509Z,15.20
2018-08-25T07:18:22.126Z,15.40
2018-08-25T07:20:50.760Z,15.50
2018-08-25T07:23:19.409Z,15.60
2018-08-25T07:25:48.104Z,15.70
2018-08-25T07:28:16.671Z,15.80
2018-08-25T07:30:45.413Z,16.00
2018-08-25T07:33:14.097Z,16.00
2018-08-25T07:35:42.708Z,16.10
2018-08-25T07:38:11.392Z,16.20
2018-08-25T07:40:40.022Z,16.20
2018-08-25T07:43:08.654Z,16.30
2018-08-25T07:45:37.495Z,16.30
2018-08-25T07:48:06.211Z,16.30
2018-08-25T07:50:34.830Z,16.40
2018-08-25T07:53:03.881Z,16.50
2018-08-25T07:55:43.491Z,16.50
2018-08-25T07:58:12.197Z,16.50
2018-08-25T08:00:40.885Z,16.40
2018-08-25T08:03:09.486Z,16.50
2018-08-25T08:05:38.259Z,16.50
2018-08-25T08:08:06.856Z,16.60
2018-08-25T08:10:35.533Z,16.80
2018-08-25T08:13:04.241Z,17.00
2018-08-25T08:15:32.909Z,17.20
2018-08-25T08:18:01.935Z,17.30
2018-08-25T08:20:30.742Z,17.40
2018-08-25T08:22:59.421Z,17.50
2018-08-25T08:25:28.134Z,17.70
2018-08-25T08:27:56.857Z,17.60
2018-08-25T08:30:25.501Z,17.70
2018-08-25T08:32:54.186Z,17.70
2018-08-25T08:35:23.024Z,17.70
2018-08-25T08:37:51.656Z,17.80
2018-08-25T08:40:20.514Z,17.60
2018-08-25T08:42:49.256Z,17.50
2018-08-25T08:45:18.024Z,17.60
2018-08-25T08:47:46.757Z,17.60
2018-08-25T08:50:15.592Z,17.50
2018-08-25T08:52:44.264Z,17.50
2018-08-25T08:55:12.939Z,17.30
2018-08-25T08:57:41.599Z,17.30
2018-08-25T09:00:10.366Z,17.30
2018-08-25T09:02:39.016Z,17.30
2018-08-25T09:05:07.836Z,17.20
2018-08-25T09:07:36.521Z,17.20
2018-08-25T09:10:05.227Z,17.10
2018-08-25T09:12:34.318Z,17.10
2018-08-25T09:15:03.789Z,17.20
2018-08-25T09:17:32.529Z,17.20
2018-08-25T09:20:01.440Z,17.30
2018-08-25T09:22:30.063Z,17.20
2018-08-25T09:24:58.658Z,17.00
2018-08-25T09:27:27.577Z,16.90
2018-08-25T09:29:56.162Z,16.90
2018-08-25T09:32:24.776Z,16.90
2018-08-25T09:34:53.438Z,16.90
2018-08-25T09:37:22.076Z,16.70
2018-08-25T09:39:50.977Z,16.80
2018-08-25T09:42:19.706Z,16.80
2018-08-25T09:44:48.362Z,16.90
2018-08-25T09:47:16.986Z,16.90
2018-08-25T09:49:45.765Z,16.80
2018-08-25T09:52:14.401Z,16.80
2018-08-25T09:54:44.857Z,16.70
2018-08-25T09:57:16.522Z,16.80
2018-08-25T09:59:45.244Z,16.70
2018-08-25T10:02:13.905Z,16.60
2018-08-25T10:04:42.525Z,16.50
2018-08-25T10:07:11.307Z,16.40
2018-08-25T10:09:39.911Z,16.40
2018-08-25T10:12:08.531Z,16.40
2018-08-25T10:14:37.182Z,16.40
2018-08-25T10:17:05.853Z,16.40
2018-08-25T10:19:34.456Z,16.30
2018-08-25T10:22:03.093Z,16.30
2018-08-25T10:24:31.697Z,16.30
2018-08-25T10:27:00.369Z,16.40
2018-08-25T10:29:28.989Z,16.40
2018-08-25T10:31:57.863Z,16.50
2018-08-25T10:34:26.481Z,16.60
2018-08-25T10:36:55.166Z,16.70
2018-08-25T10:39:23.787Z,16.80
2018-08-25T10:41:52.560Z,16.80
2018-08-25T10:44:21.125Z,16.90
2018-08-25T10:46:49.793Z,16.80
2018-08-25T10:49:18.450Z,16.80
2018-08-25T10:51:47.161Z,16.80
2018-08-25T10:54:15.825Z,16.80
2018-08-25T10:56:44.561Z,16.90
2018-08-25T10:59:13.199Z,16.80
2018-08-25T11:01:41.833Z,16.80
2018-08-25T11:04:10.748Z,16.90
2018-08-25T11:06:39.375Z,16.90
2018-08-25T11:09:10.683Z,16.60
2018-08-25T11:11:39.415Z,16.50
2018-08-25T11:14:08.109Z,16.40
2018-08-25T11:16:36.883Z,16.40
2018-08-25T11:19:05.494Z,16.30
2018-08-25T11:21:34.127Z,16.20
2018-08-25T11:24:03.105Z,16.30
2018-08-25T11:26:31.926Z,16.20
2018-08-25T11:29:00.580Z,16.10
2018-08-25T11:31:29.213Z,16.00
2018-08-25T11:33:57.813Z,15.90
2018-08-25T11:36:26.481Z,15.70
2018-08-25T11:38:55.348Z,15.70
2018-08-25T11:41:23.973Z,15.70
2018-08-25T11:43:52.644Z,15.60
2018-08-25T11:46:21.545Z,15.60
2018-08-25T11:48:50.222Z,15.70
2018-08-25T11:51:19.067Z,15.60
2018-08-25T11:53:47.728Z,15.60
2018-08-25T11:56:16.513Z,15.60
2018-08-25T11:58:45.390Z,15.50
2018-08-25T12:04:09.570Z,15.50
2018-08-25T12:06:38.286Z,15.50
2018-08-25T12:09:10.219Z,15.50
2018-08-25T12:11:38.974Z,15.40
2018-08-25T12:14:07.710Z,15.50
2018-08-25T12:16:36.346Z,15.40
2018-08-25T12:19:11.890Z,15.40
2018-08-25T12:21:40.581Z,15.30
2018-08-25T12:24:09.328Z,15.20
2018-08-25T12:26:38.349Z,15.10
2018-08-25T12:29:07.087Z,15.00
2018-08-25T12:31:35.798Z,14.80
2018-08-25T12:34:05.106Z,14.60
2018-08-25T12:36:33.756Z,14.50
2018-08-25T12:39:02.595Z,14.40
2018-08-25T12:41:31.554Z,14.20
2018-08-25T12:44:06.948Z,14.20
2018-08-25T12:46:35.794Z,14.00
2018-08-25T12:49:04.553Z,13.90
2018-08-25T12:51:33.282Z,13.80
2018-08-25T12:54:02.340Z,13.70
2018-08-25T12:56:31.145Z,13.60
2018-08-25T12:58:59.893Z,13.60
2018-08-25T13:01:28.705Z,13.60
2018-08-25T13:03:57.333Z,13.70
2018-08-25T13:06:25.953Z,13.70
2018-08-25T13:08:54.954Z,13.80
2018-08-25T13:11:23.566Z,13.80
2018-08-25T13:13:52.194Z,13.80
2018-08-25T13:16:20.959Z,14.00
2018-08-25T13:18:49.602Z,14.00
2018-08-25T13:21:18.222Z,14.10
2018-08-25T13:23:46.849Z,14.10
2018-08-25T13:26:15.501Z,14.20
2018-08-25T13:28:44.166Z,14.20
2018-08-25T13:31:12.824Z,14.20
2018-08-25T13:33:41.455Z,14.30
2018-08-25T13:36:10.085Z,14.30
2018-08-25T13:38:38.724Z,14.30
2018-08-25T13:41:07.338Z,14.30
2018-08-25T13:43:36.277Z,14.40
2018-08-25T13:46:04.938Z,14.30
2018-08-25T13:48:33.587Z,14.30
2018-08-25T13:51:03.552Z,14.30
2018-08-25T13:53:44.469Z,14.30
2018-08-25T13:56:13.718Z,14.30
2018-08-25T13:58:42.350Z,14.20
2018-08-25T14:01:10.998Z,14.10
2018-08-25T14:03:39.773Z,14.20
2018-08-25T14:06:08.799Z,14.30
2018-08-25T14:08:37.415Z,14.30
2018-08-25T14:11:06.107Z,14.30
2018-08-25T14:13:34.714Z,14.30
2018-08-25T14:16:03.481Z,14.30
2018-08-25T14:18:32.141Z,14.30
2018-08-25T14:21:00.803Z,14.40
2018-08-25T14:23:29.441Z,14.40
2018-08-25T14:26:03.146Z,14.50
2018-08-25T14:28:40.426Z,14.50
2018-08-25T14:31:17.236Z,14.60
2018-08-25T14:33:57.419Z,14.80
2018-08-25T14:36:37.284Z,14.90
2018-08-25T14:39:19.730Z,14.90
2018-08-25T14:41:59.678Z,14.90
2018-08-25T14:44:42.350Z,14.90
2018-08-25T14:47:27.877Z,15.00
2018-08-25T14:50:11.745Z,15.10
2018-08-25T14:52:52.873Z,15.10
2018-08-25T14:55:37.982Z,15.10
2018-08-25T14:58:24.347Z,15.20
2018-08-25T15:01:06.372Z,15.20
2018-08-25T15:03:56.336Z,15.20
2018-08-25T15:06:44.769Z,15.40
2018-08-25T15:09:24.055Z,15.60
2018-08-25T15:12:12.133Z,15.60
2018-08-25T15:15:04.882Z,15.70
2018-08-25T15:17:53.032Z,15.60
2018-08-25T15:20:32.412Z,15.70
2018-08-25T15:23:14.350Z,15.70
2018-08-25T15:26:04.877Z,15.70
2018-08-25T15:28:41.578Z,15.80
2018-08-25T15:31:28.823Z,16.00
2018-08-25T15:34:19.921Z,16.00
2018-08-25T15:37:10.488Z,15.90
2018-08-25T15:39:55.678Z,15.90
2018-08-25T15:42:45.838Z,15.90
2018-08-25T15:45:22.050Z,15.80
2018-08-25T15:48:13.126Z,15.90
2018-08-25T15:51:03.851Z,15.90
2018-08-25T15:53:42.087Z,15.90
2018-08-25T15:56:29.714Z,16.00
2018-08-25T15:59:15.793Z,16.00
2018-08-25T16:01:55.534Z,16.00
2018-08-25T16:04:41.424Z,16.10
2018-08-25T16:07:17.000Z,16.20
2018-08-25T16:09:56.841Z,16.20
2018-08-25T16:12:39.522Z,16.10
2018-08-25T16:15:29.388Z,16.10
2018-08-25T16:18:13.963Z,16.10
2018-08-25T16:21:01.693Z,16.00
2018-08-25T16:23:47.749Z,15.90
2018-08-25T16:26:26.821Z,15.90
2018-08-25T16:29:19.832Z,15.90
2018-08-25T16:32:04.990Z,15.90
2018-08-25T16:34:51.140Z,15.80
2018-08-25T16:37:45.308Z,15.80
2018-08-25T16:40:34.432Z,16.10
2018-08-25T16:43:24.528Z,17.00
2018-08-25T16:46:05.484Z,17.60
2018-08-25T16:48:55.807Z,18.50
2018-08-25T16:51:39.260Z,19.00
2018-08-25T16:54:34.240Z,19.10
2018-08-25T16:57:13.743Z,19.50
2018-08-25T16:59:59.221Z,19.40
2018-08-25T17:02:43.010Z,19.10
2018-08-25T17:05:26.851Z,18.70
2018-08-25T17:08:17.701Z,18.40
2018-08-25T17:11:09.233Z,18.00
2018-08-25T17:13:54.661Z,17.50
2018-08-25T17:16:35.066Z,17.10
2018-08-25T17:19:24.423Z,16.80
2018-08-25T17:22:13.015Z,16.60
2018-08-25T17:25:04.598Z,16.40
2018-08-25T17:27:33.847Z,16.10
2018-08-25T17:30:03.881Z,16.00
2018-08-25T17:32:32.505Z,15.90
2018-08-25T17:35:02.756Z,15.80
2018-08-25T17:37:32.130Z,15.70
2018-08-25T17:40:02.440Z,15.70
2018-08-25T17:42:31.201Z,15.60
2018-08-25T17:44:59.993Z,15.70
2018-08-25T17:47:28.684Z,15.60
2018-08-25T17:49:57.377Z,15.50
2018-08-25T17:52:26.084Z,15.40
2018-08-25T17:54:54.750Z,15.30
2018-08-25T17:57:23.602Z,15.20
2018-08-25T17:59:52.120Z,15.20
2018-08-25T18:02:20.798Z,15.10
2018-08-25T18:04:49.406Z,15.10
2018-08-25T18:07:25.619Z,15.00
2018-08-25T18:11:00.813Z,15.00
2018-08-25T18:16:44.561Z,14.80
2018-08-25T18:19:13.562Z,14.80
2018-08-25T18:21:42.146Z,14.80
2018-08-25T18:24:10.758Z,14.80
2018-08-25T18:26:39.413Z,14.70
2018-08-25T18:29:08.026Z,14.70
2018-08-25T18:31:36.702Z,14.50
2018-08-25T18:34:05.370Z,14.30
2018-08-25T18:36:43.118Z,14.10
2018-08-25T18:39:25.322Z,14.00
2018-08-25T18:42:02.084Z,13.90
2018-08-25T18:44:34.905Z,13.80
2018-08-25T18:47:13.242Z,13.80
2018-08-25T18:49:41.853Z,13.80
2018-08-25T18:52:10.494Z,13.80
2018-08-25T18:54:39.129Z,13.90
2018-08-25T18:57:07.773Z,13.90
2018-08-25T18:59:36.435Z,13.80
2018-08-25T19:02:05.155Z,13.70
2018-08-25T19:04:33.830Z,13.60
2018-08-25T19:07:02.522Z,13.50
2018-08-25T19:09:31.135Z,13.40
2018-08-25T19:11:59.977Z,13.30
2018-08-25T19:14:28.581Z,13.20
2018-08-25T19:16:57.217Z,13.00
2018-08-25T19:19:25.825Z,12.90
2018-08-25T19:21:54.478Z,12.90
2018-08-25T19:24:23.309Z,12.80
2018-08-25T19:26:51.920Z,12.70
2018-08-25T19:29:27.266Z,12.60
2018-08-25T19:31:55.926Z,12.50
2018-08-25T19:34:24.549Z,12.40
2018-08-25T19:36:53.314Z,12.40
2018-08-25T19:39:21.927Z,12.30
2018-08-25T19:41:50.685Z,12.30
2018-08-25T19:44:19.302Z,12.20
2018-08-25T19:46:47.935Z,12.20
2018-08-25T19:49:16.563Z,12.20
2018-08-25T19:51:45.270Z,12.20
2018-08-25T19:54:13.905Z,12.20
2018-08-25T19:56:42.510Z,12.10
2018-08-25T19:59:12.134Z,12.10
2018-08-25T20:01:40.758Z,12.10
2018-08-25T20:04:09.438Z,12.10
2018-08-25T20:06:38.097Z,12.10
2018-08-25T20:09:07.715Z,12.10
2018-08-25T20:11:36.498Z,12.20
2018-08-25T20:14:05.408Z,12.20
2018-08-25T20:16:34.045Z,12.20
2018-08-25T20:19:03.356Z,12.20
2018-08-25T20:21:31.979Z,12.20
2018-08-25T20:24:07.123Z,12.20
2018-08-25T20:26:35.778Z,12.10
2018-08-25T20:29:04.473Z,12.10
2018-08-25T20:31:33.143Z,12.00
2018-08-25T20:34:01.829Z,12.00
2018-08-25T20:36:30.543Z,11.90
2018-08-25T20:38:59.188Z,11.90
2018-08-25T20:41:27.826Z,11.80
2018-08-25T20:43:56.497Z,11.70
2018-08-25T20:46:25.184Z,11.60
2018-08-25T20:48:53.879Z,11.60
2018-08-25T20:51:22.502Z,11.50
2018-08-25T20:53:51.206Z,11.50
2018-08-25T20:56:19.906Z,11.40
2018-08-25T20:58:48.591Z,11.30
2018-08-25T21:01:17.271Z,11.30
2018-08-25T21:03:45.941Z,11.30
2018-08-25T21:06:14.557Z,11.20
2018-08-25T21:08:43.219Z,11.20
2018-08-25T21:11:11.892Z,11.10
2018-08-25T21:13:40.558Z,11.10
2018-08-25T21:16:09.210Z,11.10
2018-08-25T21:18:37.972Z,11.00
2018-08-25T21:21:06.786Z,10.90
2018-08-25T21:23:35.522Z,10.90
2018-08-25T21:26:04.189Z,10.80
2018-08-25T21:28:32.895Z,10.80
2018-08-25T21:31:01.595Z,10.70
2018-08-25T21:33:30.720Z,10.70
2018-08-25T21:35:59.538Z,10.60
2018-08-25T21:38:29.653Z,10.50
2018-08-25T21:40:58.509Z,10.50
2018-08-25T21:43:27.154Z,10.50
2018-08-25T21:45:55.801Z,10.40
2018-08-25T21:48:24.470Z,10.30
2018-08-25T21:50:53.096Z,10.30
2018-08-25T21:53:21.813Z,10.30
2018-08-25T21:55:50.494Z,10.20
2018-08-25T21:58:19.166Z,10.20
2018-08-25T22:00:53.030Z,10.10
2018-08-25T22:03:21.669Z,10.00
2018-08-25T22:05:51.134Z,10.00
2018-08-25T22:08:19.765Z,10.00
2018-08-25T22:10:48.472Z,10.00
2018-08-25T22:13:17.678Z,10.00
2018-08-25T22:15:46.413Z,9.90
2018-08-25T22:18:15.122Z,10.00
2018-08-25T22:20:43.817Z,9.90
2018-08-25T22:23:12.546Z,9.90
2018-08-25T22:25:41.276Z,9.90
2018-08-25T22:28:09.930Z,9.80
2018-08-25T22:30:38.616Z,9.70
2018-08-25T22:33:07.310Z,9.70
2018-08-25T22:35:35.957Z,9.70
2018-08-25T22:38:04.632Z,9.70
2018-08-25T22:40:33.290Z,9.70
2018-08-25T22:43:02.806Z,9.60
2018-08-25T22:45:31.458Z,9.60
2018-08-25T22:48:00.134Z,9.60
2018-08-25T22:50:28.817Z,9.60
2018-08-25T22:52:57.455Z,9.50
2018-08-25T22:55:26.121Z,9.50
2018-08-25T22:57:54.997Z,9.50
2018-08-25T23:00:23.635Z,9.50
2018-08-25T23:02:52.278Z,9.40
2018-08-25T23:05:20.936Z,9.40
2018-08-25T23:07:49.565Z,9.40
2018-08-25T23:10:18.262Z,9.40
2018-08-25T23:12:46.922Z,9.30
2018-08-25T23:15:15.682Z,9.30
2018-08-25T23:17:44.326Z,9.30
2018-08-25T23:20:12.993Z,9.30
2018-08-25T23:22:41.662Z,9.30
2018-08-25T23:25:10.347Z,9.30
2018-08-25T23:27:38.974Z,9.30
2018-08-25T23:30:07.774Z,9.30
2018-08-25T23:32:36.405Z,9.30
2018-08-25T23:35:05.539Z,9.30
2018-08-25T23:37:34.381Z,9.30
2018-08-25T23:40:03.618Z,9.20
2018-08-25T23:42:32.267Z,9.20
2018-08-25T23:45:01.658Z,9.20
